sensor_id;sensor_type;location;lat;lon;timestamp;pressure;altitude;pressure_sealevel;temperature;humidity
7376;BME280;3728;42.266;24.944;2023-02-21T00:02:27;99868.16;;;9.79;51.37
7376;BME280;3728;42.266;24.944;2023-02-21T00:05:15;99861.28;;;9.83;51.97
7376;BME280;3728;42.266;24.944;2023-02-21T00:08:01;99867.38;;;9.79;51.91
7376;BME280;3728;42.266;24.944;2023-02-21T00:10:47;99865.69;;;9.69;52.42
7376;BME280;3728;42.266;24.944;2023-02-21T00:13:38;99874.44;;;9.78;52.05
7376;BME280;3728;42.266;24.944;2023-02-21T00:16:24;99859.59;;;9.74;52.29
7376;BME280;3728;42.266;24.944;2023-02-21T00:19:10;99854.44;;;9.69;52.78
7376;BME280;3728;42.266;24.944;2023-02-21T00:21:56;99850.03;;;9.83;52.09
7376;BME280;3728;42.266;24.944;2023-02-21T00:24:42;99854.09;;;9.75;52.79
7376;BME280;3728;42.266;24.944;2023-02-21T00:27:28;99844.78;;;9.69;53.01
7376;BME280;3728;42.266;24.944;2023-02-21T00:30:14;99827.25;;;9.70;52.66
7376;BME280;3728;42.266;24.944;2023-02-21T00:33:01;99829.25;;;9.59;52.77
7376;BME280;3728;42.266;24.944;2023-02-21T00:35:47;99819.41;;;9.70;52.17
7376;BME280;3728;42.266;24.944;2023-02-21T00:38:36;99815.13;;;9.60;52.34
7376;BME280;3728;42.266;24.944;2023-02-21T00:41:22;99807.16;;;9.97;51.07
7376;BME280;3728;42.266;24.944;2023-02-21T00:44:08;99799.75;;;10.18;50.67
7376;BME280;3728;42.266;24.944;2023-02-21T00:46:54;99796.66;;;10.16;50.73
7376;BME280;3728;42.266;24.944;2023-02-21T00:49:41;99796.59;;;9.89;50.84
7376;BME280;3728;42.266;24.944;2023-02-21T00:52:27;99790.31;;;10.03;50.57
7376;BME280;3728;42.266;24.944;2023-02-21T00:55:13;99773.47;;;10.09;50.53
7376;BME280;3728;42.266;24.944;2023-02-21T00:57:59;99777.06;;;10.13;50.10
7376;BME280;3728;42.266;24.944;2023-02-21T01:00:45;99775.13;;;10.05;50.24
7376;BME280;3728;42.266;24.944;2023-02-21T01:03:31;99777.56;;;10.15;50.31
7376;BME280;3728;42.266;24.944;2023-02-21T01:06:18;99777.84;;;10.27;50.02
7376;BME280;3728;42.266;24.944;2023-02-21T01:09:04;99777.91;;;10.09;50.32
7376;BME280;3728;42.266;24.944;2023-02-21T01:11:51;99780.00;;;10.25;50.17
7376;BME280;3728;42.266;24.944;2023-02-21T01:14:37;99761.88;;;10.43;49.63
7376;BME280;3728;42.266;24.944;2023-02-21T01:17:24;99761.66;;;10.53;49.85
7376;BME280;3728;42.266;24.944;2023-02-21T01:20:11;99760.97;;;10.61;49.26
7376;BME280;3728;42.266;24.944;2023-02-21T01:22:57;99766.78;;;10.71;48.82
7376;BME280;3728;42.266;24.944;2023-02-21T01:25:43;99760.19;;;10.74;48.83
7376;BME280;3728;42.266;24.944;2023-02-21T01:28:29;99762.53;;;10.62;48.86
7376;BME280;3728;42.266;24.944;2023-02-21T01:31:17;99754.78;;;10.43;48.61
7376;BME280;3728;42.266;24.944;2023-02-21T01:34:04;99751.06;;;10.58;48.20
7376;BME280;3728;42.266;24.944;2023-02-21T01:36:51;99743.91;;;10.50;47.99
7376;BME280;3728;42.266;24.944;2023-02-21T01:39:37;99730.75;;;10.27;49.18
7376;BME280;3728;42.266;24.944;2023-02-21T01:42:23;99726.59;;;10.26;48.29
7376;BME280;3728;42.266;24.944;2023-02-21T01:48:11;99738.97;;;10.35;48.35
7376;BME280;3728;42.266;24.944;2023-02-21T01:51:02;99724.25;;;10.39;48.30
7376;BME280;3728;42.266;24.944;2023-02-21T01:53:51;99737.56;;;10.15;48.81
7376;BME280;3728;42.266;24.944;2023-02-21T01:56:38;99722.72;;;10.24;48.38
7376;BME280;3728;42.266;24.944;2023-02-21T01:59:25;99724.66;;;10.18;48.89
7376;BME280;3728;42.266;24.944;2023-02-21T02:02:21;99723.97;;;10.13;48.85
7376;BME280;3728;42.266;24.944;2023-02-21T02:05:19;99721.50;;;9.89;49.37
7376;BME280;3728;42.266;24.944;2023-02-21T02:08:05;99714.63;;;9.93;49.05
7376;BME280;3728;42.266;24.944;2023-02-21T02:11:03;99703.38;;;10.06;48.43
7376;BME280;3728;42.266;24.944;2023-02-21T02:14:39;99709.88;;;9.82;48.65
7376;BME280;3728;42.266;24.944;2023-02-21T02:28:46;99703.47;;;10.01;47.87
7376;BME280;3728;42.266;24.944;2023-02-21T02:37:34;99694.84;;;10.42;46.32
7376;BME280;3728;42.266;24.944;2023-02-21T02:40:31;99688.88;;;10.00;46.75
7376;BME280;3728;42.266;24.944;2023-02-21T02:45:43;99691.50;;;10.14;46.75
7376;BME280;3728;42.266;24.944;2023-02-21T02:48:27;99682.06;;;9.99;46.95
7376;BME280;3728;42.266;24.944;2023-02-21T02:51:06;99678.97;;;10.11;46.97
7376;BME280;3728;42.266;24.944;2023-02-21T02:53:38;99675.50;;;10.15;47.12
7376;BME280;3728;42.266;24.944;2023-02-21T02:56:08;99671.91;;;10.25;46.62
7376;BME280;3728;42.266;24.944;2023-02-21T03:10:08;99666.66;;;10.25;46.68
7376;BME280;3728;42.266;24.944;2023-02-21T03:13:03;99666.19;;;10.23;46.85
7376;BME280;3728;42.266;24.944;2023-02-21T03:15:51;99664.66;;;10.22;47.13
7376;BME280;3728;42.266;24.944;2023-02-21T03:18:32;99670.44;;;10.32;47.43
7376;BME280;3728;42.266;24.944;2023-02-21T03:21:12;99651.63;;;10.30;47.71
7376;BME280;3728;42.266;24.944;2023-02-21T03:23:45;99654.16;;;10.36;47.40
7376;BME280;3728;42.266;24.944;2023-02-21T03:26:16;99663.25;;;10.24;47.61
7376;BME280;3728;42.266;24.944;2023-02-21T03:28:47;99655.59;;;10.42;47.80
7376;BME280;3728;42.266;24.944;2023-02-21T03:31:22;99658.31;;;10.37;47.84
7376;BME280;3728;42.266;24.944;2023-02-21T03:33:52;99654.84;;;10.27;47.90
7376;BME280;3728;42.266;24.944;2023-02-21T03:36:20;99654.56;;;10.29;47.48
7376;BME280;3728;42.266;24.944;2023-02-21T03:38:48;99667.34;;;10.30;47.89
7376;BME280;3728;42.266;24.944;2023-02-21T03:41:16;99674.28;;;10.49;47.42
7376;BME280;3728;42.266;24.944;2023-02-21T03:43:43;99677.53;;;10.18;47.63
7376;BME280;3728;42.266;24.944;2023-02-21T03:46:11;99676.09;;;10.12;48.27
7376;BME280;3728;42.266;24.944;2023-02-21T03:48:39;99671.81;;;10.16;48.13
7376;BME280;3728;42.266;24.944;2023-02-21T03:51:15;99670.16;;;10.07;49.00
7376;BME280;3728;42.266;24.944;2023-02-21T03:53:43;99675.88;;;10.09;48.91
7376;BME280;3728;42.266;24.944;2023-02-21T03:56:11;99681.59;;;10.24;48.67
7376;BME280;3728;42.266;24.944;2023-02-21T03:58:54;99682.88;;;10.13;48.60
7376;BME280;3728;42.266;24.944;2023-02-21T04:01:22;99678.28;;;10.32;48.35
7376;BME280;3728;42.266;24.944;2023-02-21T04:03:51;99667.06;;;10.05;49.19
7376;BME280;3728;42.266;24.944;2023-02-21T04:06:20;99665.69;;;10.07;48.86
7376;BME280;3728;42.266;24.944;2023-02-21T04:08:47;99657.66;;;10.31;48.87
7376;BME280;3728;42.266;24.944;2023-02-21T04:11:21;99655.31;;;10.43;48.19
7376;BME280;3728;42.266;24.944;2023-02-21T04:13:51;99672.47;;;10.71;47.64
7376;BME280;3728;42.266;24.944;2023-02-21T04:16:19;99661.66;;;10.64;47.58
7376;BME280;3728;42.266;24.944;2023-02-21T04:18:49;99668.31;;;10.70;48.08
7376;BME280;3728;42.266;24.944;2023-02-21T04:21:17;99665.88;;;10.74;48.04
7376;BME280;3728;42.266;24.944;2023-02-21T04:23:46;99674.63;;;10.91;47.57
7376;BME280;3728;42.266;24.944;2023-02-21T04:26:15;99678.44;;;10.85;48.21
7376;BME280;3728;42.266;24.944;2023-02-21T04:28:47;99675.06;;;10.85;48.68
7376;BME280;3728;42.266;24.944;2023-02-21T04:31:16;99678.72;;;10.84;48.32
7376;BME280;3728;42.266;24.944;2023-02-21T04:33:44;99686.91;;;10.82;48.49
7376;BME280;3728;42.266;24.944;2023-02-21T04:36:16;99686.25;;;10.99;47.77
7376;BME280;3728;42.266;24.944;2023-02-21T04:38:44;99688.44;;;10.83;48.55
7376;BME280;3728;42.266;24.944;2023-02-21T04:41:11;99690.88;;;10.80;48.58
7376;BME280;3728;42.266;24.944;2023-02-21T04:43:41;99687.56;;;10.88;48.30
7376;BME280;3728;42.266;24.944;2023-02-21T04:46:13;99687.53;;;10.66;48.75
7376;BME280;3728;42.266;24.944;2023-02-21T04:48:46;99696.31;;;10.48;49.22
7376;BME280;3728;42.266;24.944;2023-02-21T04:51:17;99693.72;;;10.70;48.62
7376;BME280;3728;42.266;24.944;2023-02-21T04:53:48;99701.50;;;10.97;47.14
7376;BME280;3728;42.266;24.944;2023-02-21T04:56:22;99703.38;;;11.05;47.25
7376;BME280;3728;42.266;24.944;2023-02-21T04:58:51;99703.28;;;11.10;46.66
7376;BME280;3728;42.266;24.944;2023-02-21T05:01:19;99708.63;;;11.05;47.02
7376;BME280;3728;42.266;24.944;2023-02-21T05:03:48;99702.75;;;10.99;47.01
7376;BME280;3728;42.266;24.944;2023-02-21T05:06:20;99693.75;;;10.92;46.88
7376;BME280;3728;42.266;24.944;2023-02-21T05:08:52;99708.28;;;10.98;47.17
7376;BME280;3728;42.266;24.944;2023-02-21T05:11:21;99698.75;;;10.80;47.13
7376;BME280;3728;42.266;24.944;2023-02-21T05:13:49;99703.44;;;10.91;46.96
7376;BME280;3728;42.266;24.944;2023-02-21T05:16:18;99701.88;;;10.68;47.35
7376;BME280;3728;42.266;24.944;2023-02-21T05:18:47;99694.47;;;11.06;46.79
7376;BME280;3728;42.266;24.944;2023-02-21T05:21:16;99695.69;;;10.86;46.84
7376;BME280;3728;42.266;24.944;2023-02-21T05:23:45;99685.66;;;11.02;46.59
7376;BME280;3728;42.266;24.944;2023-02-21T05:26:24;99690.28;;;10.83;47.01
7376;BME280;3728;42.266;24.944;2023-02-21T05:28:58;99690.03;;;10.93;46.78
7376;BME280;3728;42.266;24.944;2023-02-21T05:31:26;99691.78;;;10.97;46.59
7376;BME280;3728;42.266;24.944;2023-02-21T05:33:53;99693.13;;;10.73;46.74
7376;BME280;3728;42.266;24.944;2023-02-21T05:36:21;99698.53;;;10.76;46.76
7376;BME280;3728;42.266;24.944;2023-02-21T05:38:53;99704.53;;;10.55;47.51
7376;BME280;3728;42.266;24.944;2023-02-21T05:41:22;99705.28;;;10.69;47.14
7376;BME280;3728;42.266;24.944;2023-02-21T05:43:50;99703.66;;;10.95;46.25
7376;BME280;3728;42.266;24.944;2023-02-21T05:46:30;99709.41;;;11.06;45.77
7376;BME280;3728;42.266;24.944;2023-02-21T05:49:01;99711.28;;;10.69;46.92
7376;BME280;3728;42.266;24.944;2023-02-21T05:51:38;99704.94;;;10.35;48.00
7376;BME280;3728;42.266;24.944;2023-02-21T05:54:10;99725.59;;;10.09;48.55
7376;BME280;3728;42.266;24.944;2023-02-21T05:56:44;99722.28;;;9.90;49.19
7376;BME280;3728;42.266;24.944;2023-02-21T05:59:15;99723.94;;;9.99;48.69
7376;BME280;3728;42.266;24.944;2023-02-21T06:01:46;99728.91;;;10.14;48.66
7376;BME280;3728;42.266;24.944;2023-02-21T06:04:14;99713.44;;;10.54;47.72
7376;BME280;3728;42.266;24.944;2023-02-21T06:06:42;99708.28;;;10.76;47.19
7376;BME280;3728;42.266;24.944;2023-02-21T06:09:10;99713.25;;;10.64;47.59
7376;BME280;3728;42.266;24.944;2023-02-21T06:11:38;99709.44;;;10.70;47.32
7376;BME280;3728;42.266;24.944;2023-02-21T06:14:13;99706.75;;;10.61;47.29
7376;BME280;3728;42.266;24.944;2023-02-21T06:16:42;99709.06;;;10.63;47.71
7376;BME280;3728;42.266;24.944;2023-02-21T06:19:14;99708.31;;;10.49;48.21
7376;BME280;3728;42.266;24.944;2023-02-21T06:21:42;99713.56;;;10.49;48.17
7376;BME280;3728;42.266;24.944;2023-02-21T06:24:11;99710.88;;;10.40;48.66
7376;BME280;3728;42.266;24.944;2023-02-21T06:26:38;99715.00;;;10.41;49.15
7376;BME280;3728;42.266;24.944;2023-02-21T06:29:10;99715.78;;;10.42;48.86
7376;BME280;3728;42.266;24.944;2023-02-21T06:31:38;99714.97;;;10.68;48.30
7376;BME280;3728;42.266;24.944;2023-02-21T06:34:05;99718.19;;;10.65;49.03
7376;BME280;3728;42.266;24.944;2023-02-21T06:36:33;99717.59;;;10.90;49.52
7376;BME280;3728;42.266;24.944;2023-02-21T06:39:01;99712.41;;;11.35;48.69
7376;BME280;3728;42.266;24.944;2023-02-21T06:41:29;99720.41;;;11.60;47.65
7376;BME280;3728;42.266;24.944;2023-02-21T06:43:58;99715.69;;;11.71;47.67
7376;BME280;3728;42.266;24.944;2023-02-21T06:46:27;99719.19;;;12.45;45.78
7376;BME280;3728;42.266;24.944;2023-02-21T06:48:56;99710.41;;;12.84;45.21
7376;BME280;3728;42.266;24.944;2023-02-21T06:51:24;99702.66;;;13.22;44.69
7376;BME280;3728;42.266;24.944;2023-02-21T06:53:57;99697.78;;;13.58;43.34
7376;BME280;3728;42.266;24.944;2023-02-21T06:56:25;99710.13;;;13.75;42.33
7376;BME280;3728;42.266;24.944;2023-02-21T06:58:54;99712.13;;;13.78;42.21
7376;BME280;3728;42.266;24.944;2023-02-21T07:01:24;99712.25;;;13.81;43.42
7376;BME280;3728;42.266;24.944;2023-02-21T07:03:57;99711.22;;;14.41;41.08
7376;BME280;3728;42.266;24.944;2023-02-21T07:06:25;99710.22;;;13.87;42.91
7376;BME280;3728;42.266;24.944;2023-02-21T07:08:56;99708.03;;;13.89;43.11
7376;BME280;3728;42.266;24.944;2023-02-21T07:11:23;99712.13;;;14.07;42.38
7376;BME280;3728;42.266;24.944;2023-02-21T07:13:54;99704.13;;;14.03;41.70
7376;BME280;3728;42.266;24.944;2023-02-21T07:16:25;99709.56;;;13.90;41.94
7376;BME280;3728;42.266;24.944;2023-02-21T07:18:53;99697.13;;;14.07;41.13
7376;BME280;3728;42.266;24.944;2023-02-21T07:21:21;99712.31;;;13.64;42.40
7376;BME280;3728;42.266;24.944;2023-02-21T07:23:48;99712.84;;;13.49;42.78
7376;BME280;3728;42.266;24.944;2023-02-21T07:26:17;99715.50;;;13.32;43.46
7376;BME280;3728;42.266;24.944;2023-02-21T07:28:49;99699.25;;;13.30;43.35
7376;BME280;3728;42.266;24.944;2023-02-21T07:31:16;99701.88;;;13.30;43.24
7376;BME280;3728;42.266;24.944;2023-02-21T07:33:46;99700.00;;;13.39;43.51
7376;BME280;3728;42.266;24.944;2023-02-21T07:36:14;99697.75;;;13.66;43.25
7376;BME280;3728;42.266;24.944;2023-02-21T07:38:41;99690.41;;;13.81;43.30
7376;BME280;3728;42.266;24.944;2023-02-21T07:41:09;99691.34;;;13.85;42.56
7376;BME280;3728;42.266;24.944;2023-02-21T07:43:36;99693.41;;;14.08;41.65
7376;BME280;3728;42.266;24.944;2023-02-21T07:46:11;99689.66;;;14.09;42.35
7376;BME280;3728;42.266;24.944;2023-02-21T07:48:43;99693.47;;;14.20;42.84
7376;BME280;3728;42.266;24.944;2023-02-21T07:51:11;99693.22;;;14.43;42.22
7376;BME280;3728;42.266;24.944;2023-02-21T07:53:39;99680.19;;;14.67;41.78
7376;BME280;3728;42.266;24.944;2023-02-21T07:56:07;99681.63;;;14.97;40.72
7376;BME280;3728;42.266;24.944;2023-02-21T07:58:34;99671.31;;;14.71;41.11
7376;BME280;3728;42.266;24.944;2023-02-21T08:01:04;99667.50;;;14.60;41.12
7376;BME280;3728;42.266;24.944;2023-02-21T08:03:33;99662.81;;;14.66;41.83
7376;BME280;3728;42.266;24.944;2023-02-21T08:06:00;99663.50;;;14.75;41.65
7376;BME280;3728;42.266;24.944;2023-02-21T08:08:28;99668.44;;;14.97;40.55
7376;BME280;3728;42.266;24.944;2023-02-21T08:10:56;99664.59;;;14.94;40.68
7376;BME280;3728;42.266;24.944;2023-02-21T08:13:23;99663.44;;;15.16;40.51
7376;BME280;3728;42.266;24.944;2023-02-21T08:15:51;99664.31;;;15.20;41.25
7376;BME280;3728;42.266;24.944;2023-02-21T08:18:21;99669.50;;;15.49;39.56
7376;BME280;3728;42.266;24.944;2023-02-21T08:20:54;99663.78;;;15.71;39.51
7376;BME280;3728;42.266;24.944;2023-02-21T08:23:24;99655.75;;;15.68;39.85
7376;BME280;3728;42.266;24.944;2023-02-21T08:25:52;99655.63;;;15.89;39.00
7376;BME280;3728;42.266;24.944;2023-02-21T08:28:20;99646.16;;;16.00;38.79
7376;BME280;3728;42.266;24.944;2023-02-21T08:30:48;99646.16;;;16.00;38.88
7376;BME280;3728;42.266;24.944;2023-02-21T08:33:15;99646.78;;;16.09;38.93
7376;BME280;3728;42.266;24.944;2023-02-21T08:35:43;99647.88;;;16.32;38.94
7376;BME280;3728;42.266;24.944;2023-02-21T08:38:10;99636.03;;;16.54;38.40
7376;BME280;3728;42.266;24.944;2023-02-21T08:40:38;99651.28;;;16.72;38.24
7376;BME280;3728;42.266;24.944;2023-02-21T08:43:06;99637.13;;;16.65;38.70
7376;BME280;3728;42.266;24.944;2023-02-21T08:45:33;99645.19;;;16.84;38.06
7376;BME280;3728;42.266;24.944;2023-02-21T08:48:01;99639.59;;;17.01;37.70
7376;BME280;3728;42.266;24.944;2023-02-21T08:50:29;99638.50;;;17.02;37.89
7376;BME280;3728;42.266;24.944;2023-02-21T08:52:57;99636.44;;;17.11;37.39
7376;BME280;3728;42.266;24.944;2023-02-21T08:55:25;99633.25;;;17.33;37.52
7376;BME280;3728;42.266;24.944;2023-02-21T08:57:52;99616.44;;;17.57;37.12
7376;BME280;3728;42.266;24.944;2023-02-21T09:00:22;99618.91;;;18.00;35.97
7376;BME280;3728;42.266;24.944;2023-02-21T09:02:54;99615.09;;;18.17;35.97
7376;BME280;3728;42.266;24.944;2023-02-21T09:05:25;99611.91;;;18.27;35.62
7376;BME280;3728;42.266;24.944;2023-02-21T09:07:58;99605.19;;;18.49;34.71
7376;BME280;3728;42.266;24.944;2023-02-21T09:10:29;99598.31;;;18.67;34.71
7376;BME280;3728;42.266;24.944;2023-02-21T09:13:02;99598.19;;;19.01;34.34
7376;BME280;3728;42.266;24.944;2023-02-21T09:15:30;99602.84;;;19.08;33.81
7376;BME280;3728;42.266;24.944;2023-02-21T09:18:00;99593.34;;;19.30;33.44
7376;BME280;3728;42.266;24.944;2023-02-21T09:20:28;99590.38;;;19.35;33.37
7376;BME280;3728;42.266;24.944;2023-02-21T09:22:55;99578.31;;;19.37;33.00
7376;BME280;3728;42.266;24.944;2023-02-21T09:25:23;99589.38;;;19.65;32.33
7376;BME280;3728;42.266;24.944;2023-02-21T09:27:52;99594.31;;;19.67;32.44
7376;BME280;3728;42.266;24.944;2023-02-21T09:30:23;99586.00;;;19.68;32.43
7376;BME280;3728;42.266;24.944;2023-02-21T09:32:52;99578.84;;;20.02;31.80
7376;BME280;3728;42.266;24.944;2023-02-21T09:35:21;99575.66;;;19.90;31.53
7376;BME280;3728;42.266;24.944;2023-02-21T09:37:49;99580.56;;;19.88;31.30
7376;BME280;3728;42.266;24.944;2023-02-21T09:40:26;99597.38;;;19.69;31.22
7376;BME280;3728;42.266;24.944;2023-02-21T09:43:11;99577.25;;;19.68;30.77
7376;BME280;3728;42.266;24.944;2023-02-21T09:45:41;99584.31;;;19.83;30.71
7376;BME280;3728;42.266;24.944;2023-02-21T09:48:17;99561.25;;;19.64;30.80
7376;BME280;3728;42.266;24.944;2023-02-21T09:50:52;99562.03;;;19.65;31.00
7376;BME280;3728;42.266;24.944;2023-02-21T09:53:26;99560.06;;;19.88;30.53
7376;BME280;3728;42.266;24.944;2023-02-21T09:58:59;99546.72;;;19.85;30.65
7376;BME280;3728;42.266;24.944;2023-02-21T10:09:59;99542.09;;;20.08;29.60
7376;BME280;3728;42.266;24.944;2023-02-21T10:12:51;99528.69;;;20.30;29.47
7376;BME280;3728;42.266;24.944;2023-02-21T10:15:47;99529.66;;;20.19;29.01
7376;BME280;3728;42.266;24.944;2023-02-21T10:21:21;99514.63;;;20.30;29.09
7376;BME280;3728;42.266;24.944;2023-02-21T10:23:53;99515.50;;;20.41;28.71
7376;BME280;3728;42.266;24.944;2023-02-21T10:26:25;99501.56;;;20.55;28.94
7376;BME280;3728;42.266;24.944;2023-02-21T10:28:55;99506.13;;;20.54;28.28
7376;BME280;3728;42.266;24.944;2023-02-21T10:33:57;99497.34;;;21.45;27.82
7376;BME280;3728;42.266;24.944;2023-02-21T10:36:26;99496.50;;;21.27;27.98
7376;BME280;3728;42.266;24.944;2023-02-21T10:39:09;99482.41;;;21.26;27.68
7376;BME280;3728;42.266;24.944;2023-02-21T10:41:51;99478.78;;;21.59;27.50
7376;BME280;3728;42.266;24.944;2023-02-21T10:44:24;99479.94;;;21.65;26.24
7376;BME280;3728;42.266;24.944;2023-02-21T10:47:01;99466.59;;;21.61;26.21
7376;BME280;3728;42.266;24.944;2023-02-21T10:49:53;99461.31;;;21.68;26.40
7376;BME280;3728;42.266;24.944;2023-02-21T10:52:26;99475.31;;;21.51;26.31
7376;BME280;3728;42.266;24.944;2023-02-21T10:57:32;99468.59;;;21.82;26.57
7376;BME280;3728;42.266;24.944;2023-02-21T11:00:00;99457.31;;;22.20;25.85
7376;BME280;3728;42.266;24.944;2023-02-21T11:02:38;99453.13;;;22.40;25.69
7376;BME280;3728;42.266;24.944;2023-02-21T11:07:58;99441.31;;;22.41;25.13
7376;BME280;3728;42.266;24.944;2023-02-21T11:10:35;99433.31;;;22.52;25.04
7376;BME280;3728;42.266;24.944;2023-02-21T11:13:14;99428.00;;;22.70;24.88
7376;BME280;3728;42.266;24.944;2023-02-21T11:16:17;99421.88;;;22.94;24.46
7376;BME280;3728;42.266;24.944;2023-02-21T11:19:03;99407.38;;;22.88;24.46
7376;BME280;3728;42.266;24.944;2023-02-21T11:21:32;99408.91;;;22.92;24.92
7376;BME280;3728;42.266;24.944;2023-02-21T11:24:03;99402.69;;;23.31;24.27
7376;BME280;3728;42.266;24.944;2023-02-21T11:26:49;99405.09;;;22.93;24.62
7376;BME280;3728;42.266;24.944;2023-02-21T11:29:23;99408.56;;;22.80;24.39
7376;BME280;3728;42.266;24.944;2023-02-21T11:31:52;99393.66;;;22.75;24.78
7376;BME280;3728;42.266;24.944;2023-02-21T11:34:27;99390.59;;;22.87;24.75
7376;BME280;3728;42.266;24.944;2023-02-21T11:37:01;99382.91;;;23.10;25.00
7376;BME280;3728;42.266;24.944;2023-02-21T11:39:32;99380.19;;;23.32;23.82
7376;BME280;3728;42.266;24.944;2023-02-21T11:42:02;99377.41;;;23.60;24.00
7376;BME280;3728;42.266;24.944;2023-02-21T11:44:33;99368.66;;;23.52;23.42
7376;BME280;3728;42.266;24.944;2023-02-21T11:47:12;99364.72;;;23.74;23.78
7376;BME280;3728;42.266;24.944;2023-02-21T11:50:10;99358.75;;;24.15;23.25
7376;BME280;3728;42.266;24.944;2023-02-21T11:52:58;99364.91;;;24.12;23.74
7376;BME280;3728;42.266;24.944;2023-02-21T11:55:38;99348.84;;;24.12;23.13
7376;BME280;3728;42.266;24.944;2023-02-21T11:58:21;99346.53;;;24.14;22.89
7376;BME280;3728;42.266;24.944;2023-02-21T12:01:15;99341.97;;;24.07;22.60
7376;BME280;3728;42.266;24.944;2023-02-21T12:04:36;99337.22;;;24.29;22.59
7376;BME280;3728;42.266;24.944;2023-02-21T12:13:47;99312.66;;;24.78;21.95
7376;BME280;3728;42.266;24.944;2023-02-21T12:22:01;99294.19;;;24.87;21.77
7376;BME280;3728;42.266;24.944;2023-02-21T12:48:28;99248.84;;;25.30;21.30
7376;BME280;3728;42.266;24.944;2023-02-21T12:51:18;99253.91;;;25.55;21.08
7376;BME280;3728;42.266;24.944;2023-02-21T12:57:01;99248.66;;;25.94;20.65
7376;BME280;3728;42.266;24.944;2023-02-21T13:05:49;99240.97;;;25.73;20.61
7376;BME280;3728;42.266;24.944;2023-02-21T13:08:29;99243.38;;;25.91;20.33
7376;BME280;3728;42.266;24.944;2023-02-21T13:14:11;99226.78;;;25.96;20.32
7376;BME280;3728;42.266;24.944;2023-02-21T13:16:43;99228.88;;;26.08;20.39
7376;BME280;3728;42.266;24.944;2023-02-21T13:19:11;99224.31;;;25.81;20.15
7376;BME280;3728;42.266;24.944;2023-02-21T13:21:58;99208.34;;;25.74;20.64
7376;BME280;3728;42.266;24.944;2023-02-21T13:28:05;99211.25;;;25.60;20.64
7376;BME280;3728;42.266;24.944;2023-02-21T13:30:39;99219.16;;;25.94;20.50
7376;BME280;3728;42.266;24.944;2023-02-21T13:33:27;99228.84;;;25.88;20.54
7376;BME280;3728;42.266;24.944;2023-02-21T13:41:38;99223.94;;;25.60;20.98
7376;BME280;3728;42.266;24.944;2023-02-21T13:44:16;99215.06;;;25.86;20.71
7376;BME280;3728;42.266;24.944;2023-02-21T13:47:18;99207.81;;;26.06;20.63
7376;BME280;3728;42.266;24.944;2023-02-21T13:49:53;99212.28;;;26.16;20.61
7376;BME280;3728;42.266;24.944;2023-02-21T13:57:42;99207.13;;;26.84;20.05
7376;BME280;3728;42.266;24.944;2023-02-21T14:03:01;99211.28;;;27.05;19.86
7376;BME280;3728;42.266;24.944;2023-02-21T14:11:13;99210.19;;;26.24;20.75
7376;BME280;3728;42.266;24.944;2023-02-21T14:14:01;99209.88;;;26.61;20.20
7376;BME280;3728;42.266;24.944;2023-02-21T14:17:01;99211.06;;;26.80;20.16
7376;BME280;3728;42.266;24.944;2023-02-21T14:19:40;99210.56;;;26.85;20.22
7376;BME280;3728;42.266;24.944;2023-02-21T14:22:17;99211.59;;;26.91;20.20
7376;BME280;3728;42.266;24.944;2023-02-21T14:24:51;99202.44;;;27.04;19.71
7376;BME280;3728;42.266;24.944;2023-02-21T14:27:50;99205.78;;;26.92;19.82
7376;BME280;3728;42.266;24.944;2023-02-21T14:30:32;99205.22;;;27.01;20.36
7376;BME280;3728;42.266;24.944;2023-02-21T14:33:25;99199.59;;;26.95;20.32
7376;BME280;3728;42.266;24.944;2023-02-21T14:36:01;99199.88;;;26.62;20.43
7376;BME280;3728;42.266;24.944;2023-02-21T14:38:38;99193.41;;;26.79;20.85
7376;BME280;3728;42.266;24.944;2023-02-21T14:44:39;99205.69;;;26.80;20.71
7376;BME280;3728;42.266;24.944;2023-02-21T15:10:15;99203.19;;;26.89;20.46
7376;BME280;3728;42.266;24.944;2023-02-21T15:12:55;99200.81;;;27.10;20.46
7376;BME280;3728;42.266;24.944;2023-02-21T15:15:37;99199.53;;;27.15;20.18
7376;BME280;3728;42.266;24.944;2023-02-21T15:18:08;99202.88;;;27.03;20.59
7376;BME280;3728;42.266;24.944;2023-02-21T15:20:39;99199.28;;;27.09;20.26
7376;BME280;3728;42.266;24.944;2023-02-21T15:23:20;99200.38;;;27.12;20.56
7376;BME280;3728;42.266;24.944;2023-02-21T15:25:57;99195.53;;;26.68;20.59
7376;BME280;3728;42.266;24.944;2023-02-21T15:28:31;99198.66;;;26.46;20.98
7376;BME280;3728;42.266;24.944;2023-02-21T15:31:05;99195.19;;;25.84;21.27
7376;BME280;3728;42.266;24.944;2023-02-21T15:33:39;99188.59;;;24.85;22.16
7376;BME280;3728;42.266;24.944;2023-02-21T15:36:17;99204.19;;;24.26;22.85
7376;BME280;3728;42.266;24.944;2023-02-21T15:41:44;99195.25;;;22.89;23.80
7376;BME280;3728;42.266;24.944;2023-02-21T15:44:22;99186.25;;;22.51;24.62
7376;BME280;3728;42.266;24.944;2023-02-21T15:47:22;99190.50;;;22.34;24.61
7376;BME280;3728;42.266;24.944;2023-02-21T15:50:02;99195.50;;;21.83;25.13
7376;BME280;3728;42.266;24.944;2023-02-21T15:52:48;99196.66;;;21.89;24.94
7376;BME280;3728;42.266;24.944;2023-02-21T16:00:42;99185.91;;;21.15;25.67
7376;BME280;3728;42.266;24.944;2023-02-21T16:03:37;99193.84;;;20.97;25.77
7376;BME280;3728;42.266;24.944;2023-02-21T16:06:13;99196.88;;;20.92;25.71
7376;BME280;3728;42.266;24.944;2023-02-21T16:14:44;99194.81;;;20.51;26.22
7376;BME280;3728;42.266;24.944;2023-02-21T16:17:37;99202.56;;;20.19;26.67
7376;BME280;3728;42.266;24.944;2023-02-21T16:22:41;99211.00;;;20.28;26.34
7376;BME280;3728;42.266;24.944;2023-02-21T16:25:32;99205.31;;;20.26;26.16
7376;BME280;3728;42.266;24.944;2023-02-21T16:28:05;99221.84;;;20.02;26.50
7376;BME280;3728;42.266;24.944;2023-02-21T16:30:38;99220.41;;;20.15;26.15
7376;BME280;3728;42.266;24.944;2023-02-21T16:33:05;99224.50;;;20.02;26.20
7376;BME280;3728;42.266;24.944;2023-02-21T16:35:35;99221.19;;;20.19;26.18
7376;BME280;3728;42.266;24.944;2023-02-21T16:38:02;99216.59;;;20.12;26.06
7376;BME280;3728;42.266;24.944;2023-02-21T16:40:33;99229.13;;;20.12;26.40
7376;BME280;3728;42.266;24.944;2023-02-21T16:43:03;99231.59;;;20.38;25.94
7376;BME280;3728;42.266;24.944;2023-02-21T16:45:31;99232.56;;;20.12;26.23
7376;BME280;3728;42.266;24.944;2023-02-21T16:48:05;99227.63;;;20.14;26.42
7376;BME280;3728;42.266;24.944;2023-02-21T16:50:38;99232.72;;;19.86;26.95